Current Weather

Concord Municipal Airport

Concord Municipal Airport, New Hampshire (KCON)

Report from: Sunday, May 22, 2022 2:51 AM EDT
Current time: Sunday, May 22, 2022 3:15 AM EDT

Nearby weather
Weather history
Weather forecast

Temperature16.7°C (62.1°F)
Dew point16.1°C (61.0°F)
Winds Calm
Visibility8 mi. (12.9 km)
Clouds Sky clear
Altimeter29.99 in.Hg (1016 mB)
Relative humidity96 %
Density altitude373 ft. (114 m)
Sea-level pressure101.5 kPa (1015 mB, 29.98 in.Hg)
Remarks Fully automated report
Automated weather observing station with precipitation discriminator
Flight conditions Visual Meteorological Conditions
Raw dataKCON 220651Z AUTO 00000KT 8SM CLR 17/16 A2999 RMK AO2 SLP154 T01670161
An error has occurred. This application may no longer respond until reloaded. Reload 🗙